sensor_id;sensor_type;location;lat;lon;timestamp;temperature;humidity
14093;DHT22;7123;49.468;10.992;2023-09-30T00:00:57;18.60;99.90
14093;DHT22;7123;49.468;10.992;2023-09-30T00:03:24;18.70;99.90
14093;DHT22;7123;49.468;10.992;2023-09-30T00:05:51;18.80;99.90
14093;DHT22;7123;49.468;10.992;2023-09-30T00:08:18;19.00;99.90
14093;DHT22;7123;49.468;10.992;2023-09-30T00:10:45;19.10;99.90
14093;DHT22;7123;49.468;10.992;2023-09-30T00:13:13;19.10;99.90
14093;DHT22;7123;49.468;10.992;2023-09-30T00:15:40;19.00;99.90
14093;DHT22;7123;49.468;10.992;2023-09-30T00:18:07;19.10;99.90
14093;DHT22;7123;49.468;10.992;2023-09-30T00:20:34;19.10;99.90
14093;DHT22;7123;49.468;10.992;2023-09-30T00:23:01;19.20;99.90
14093;DHT22;7123;49.468;10.992;2023-09-30T00:25:28;19.30;99.90
14093;DHT22;7123;49.468;10.992;2023-09-30T00:27:54;19.30;99.90
14093;DHT22;7123;49.468;10.992;2023-09-30T00:30:21;19.30;99.90
14093;DHT22;7123;49.468;10.992;2023-09-30T00:32:48;19.00;99.90
14093;DHT22;7123;49.468;10.992;2023-09-30T00:35:15;19.00;99.90
14093;DHT22;7123;49.468;10.992;2023-09-30T00:37:42;19.00;99.90
14093;DHT22;7123;49.468;10.992;2023-09-30T00:40:10;19.20;99.90
14093;DHT22;7123;49.468;10.992;2023-09-30T00:42:40;19.30;99.90
14093;DHT22;7123;49.468;10.992;2023-09-30T00:45:08;19.40;99.90
14093;DHT22;7123;49.468;10.992;2023-09-30T00:47:38;19.40;99.90
14093;DHT22;7123;49.468;10.992;2023-09-30T00:50:05;19.40;99.90
14093;DHT22;7123;49.468;10.992;2023-09-30T00:52:35;19.40;99.90
14093;DHT22;7123;49.468;10.992;2023-09-30T00:55:02;19.30;99.90
14093;DHT22;7123;49.468;10.992;2023-09-30T00:57:30;19.20;99.90
14093;DHT22;7123;49.468;10.992;2023-09-30T00:59:57;19.10;99.90
14093;DHT22;7123;49.468;10.992;2023-09-30T01:02:24;19.10;99.90
14093;DHT22;7123;49.468;10.992;2023-09-30T01:04:51;19.00;99.90
14093;DHT22;7123;49.468;10.992;2023-09-30T01:07:18;19.00;99.90
14093;DHT22;7123;49.468;10.992;2023-09-30T01:09:48;19.00;99.90
14093;DHT22;7123;49.468;10.992;2023-09-30T01:12:17;19.00;99.90
14093;DHT22;7123;49.468;10.992;2023-09-30T01:14:43;19.00;99.90
14093;DHT22;7123;49.468;10.992;2023-09-30T01:17:10;19.10;99.90
14093;DHT22;7123;49.468;10.992;2023-09-30T01:19:41;19.00;99.90
14093;DHT22;7123;49.468;10.992;2023-09-30T01:22:09;19.00;99.90
14093;DHT22;7123;49.468;10.992;2023-09-30T01:24:40;19.00;99.90
14093;DHT22;7123;49.468;10.992;2023-09-30T01:27:08;19.00;99.90
14093;DHT22;7123;49.468;10.992;2023-09-30T01:29:35;19.00;99.90
14093;DHT22;7123;49.468;10.992;2023-09-30T01:32:05;18.90;99.90
14093;DHT22;7123;49.468;10.992;2023-09-30T01:34:36;18.80;99.90
14093;DHT22;7123;49.468;10.992;2023-09-30T01:37:02;18.60;99.90
14093;DHT22;7123;49.468;10.992;2023-09-30T01:39:29;18.40;99.90
14093;DHT22;7123;49.468;10.992;2023-09-30T01:41:59;18.40;99.90
14093;DHT22;7123;49.468;10.992;2023-09-30T01:44:26;18.40;99.90
14093;DHT22;7123;49.468;10.992;2023-09-30T01:46:54;18.40;99.90
14093;DHT22;7123;49.468;10.992;2023-09-30T01:49:20;18.30;99.90
14093;DHT22;7123;49.468;10.992;2023-09-30T01:51:50;18.30;99.90
14093;DHT22;7123;49.468;10.992;2023-09-30T01:54:17;18.20;99.90
14093;DHT22;7123;49.468;10.992;2023-09-30T01:56:44;18.20;99.90
14093;DHT22;7123;49.468;10.992;2023-09-30T01:59:11;18.20;99.90
14093;DHT22;7123;49.468;10.992;2023-09-30T02:01:37;18.10;99.90
14093;DHT22;7123;49.468;10.992;2023-09-30T02:04:04;18.10;99.90
14093;DHT22;7123;49.468;10.992;2023-09-30T02:06:33;18.10;99.90
14093;DHT22;7123;49.468;10.992;2023-09-30T02:09:01;18.10;99.90
14093;DHT22;7123;49.468;10.992;2023-09-30T02:11:27;18.00;99.90
14093;DHT22;7123;49.468;10.992;2023-09-30T02:13:55;18.00;99.90
14093;DHT22;7123;49.468;10.992;2023-09-30T02:16:22;17.90;99.90
14093;DHT22;7123;49.468;10.992;2023-09-30T02:18:49;17.80;99.90
14093;DHT22;7123;49.468;10.992;2023-09-30T02:21:17;17.80;99.90
14093;DHT22;7123;49.468;10.992;2023-09-30T02:23:44;17.80;99.90
14093;DHT22;7123;49.468;10.992;2023-09-30T02:26:15;17.70;99.90
14093;DHT22;7123;49.468;10.992;2023-09-30T02:28:42;17.60;99.90
14093;DHT22;7123;49.468;10.992;2023-09-30T02:31:08;17.50;99.90
14093;DHT22;7123;49.468;10.992;2023-09-30T02:33:35;17.40;99.90
14093;DHT22;7123;49.468;10.992;2023-09-30T02:36:02;17.30;99.90
14093;DHT22;7123;49.468;10.992;2023-09-30T02:38:32;17.30;99.90
14093;DHT22;7123;49.468;10.992;2023-09-30T02:40:58;17.30;99.90
14093;DHT22;7123;49.468;10.992;2023-09-30T02:43:25;17.30;99.90
14093;DHT22;7123;49.468;10.992;2023-09-30T02:45:52;17.30;99.90
14093;DHT22;7123;49.468;10.992;2023-09-30T02:48:19;17.30;99.90
14093;DHT22;7123;49.468;10.992;2023-09-30T02:50:47;17.30;99.90
14093;DHT22;7123;49.468;10.992;2023-09-30T02:53:17;17.20;99.90
14093;DHT22;7123;49.468;10.992;2023-09-30T02:55:44;17.10;99.90
14093;DHT22;7123;49.468;10.992;2023-09-30T02:58:12;17.10;99.90
14093;DHT22;7123;49.468;10.992;2023-09-30T03:00:38;17.10;99.90
14093;DHT22;7123;49.468;10.992;2023-09-30T03:03:05;17.00;99.90
14093;DHT22;7123;49.468;10.992;2023-09-30T03:05:32;17.00;99.90
14093;DHT22;7123;49.468;10.992;2023-09-30T03:08:00;17.00;99.90
14093;DHT22;7123;49.468;10.992;2023-09-30T03:10:31;16.90;99.90
14093;DHT22;7123;49.468;10.992;2023-09-30T03:12:57;16.90;99.90
14093;DHT22;7123;49.468;10.992;2023-09-30T03:15:30;16.80;99.90
14093;DHT22;7123;49.468;10.992;2023-09-30T03:17:58;16.70;99.90
14093;DHT22;7123;49.468;10.992;2023-09-30T03:20:26;16.60;99.90
14093;DHT22;7123;49.468;10.992;2023-09-30T03:22:53;16.60;99.90
14093;DHT22;7123;49.468;10.992;2023-09-30T03:25:20;16.70;99.90
14093;DHT22;7123;49.468;10.992;2023-09-30T03:27:47;16.70;99.90
14093;DHT22;7123;49.468;10.992;2023-09-30T03:30:16;16.60;99.90
14093;DHT22;7123;49.468;10.992;2023-09-30T03:32:43;16.50;99.90
14093;DHT22;7123;49.468;10.992;2023-09-30T03:35:11;16.60;99.90
14093;DHT22;7123;49.468;10.992;2023-09-30T03:37:41;16.50;99.90
14093;DHT22;7123;49.468;10.992;2023-09-30T03:40:08;16.50;99.90
14093;DHT22;7123;49.468;10.992;2023-09-30T03:42:41;16.60;99.90
14093;DHT22;7123;49.468;10.992;2023-09-30T03:45:11;16.60;99.90
14093;DHT22;7123;49.468;10.992;2023-09-30T03:47:41;16.50;99.90
14093;DHT22;7123;49.468;10.992;2023-09-30T03:50:08;16.40;99.90
14093;DHT22;7123;49.468;10.992;2023-09-30T03:52:43;16.40;99.90
14093;DHT22;7123;49.468;10.992;2023-09-30T03:55:16;16.50;99.90
14093;DHT22;7123;49.468;10.992;2023-09-30T03:57:49;16.40;99.90
14093;DHT22;7123;49.468;10.992;2023-09-30T04:00:17;16.30;99.90
14093;DHT22;7123;49.468;10.992;2023-09-30T04:02:48;16.00;99.90
14093;DHT22;7123;49.468;10.992;2023-09-30T04:05:18;15.90;99.90
14093;DHT22;7123;49.468;10.992;2023-09-30T04:07:45;15.90;99.90
14093;DHT22;7123;49.468;10.992;2023-09-30T04:10:13;15.90;99.90
14093;DHT22;7123;49.468;10.992;2023-09-30T04:12:39;15.90;99.90
14093;DHT22;7123;49.468;10.992;2023-09-30T04:15:07;15.80;99.90
14093;DHT22;7123;49.468;10.992;2023-09-30T04:17:33;16.00;99.90
14093;DHT22;7123;49.468;10.992;2023-09-30T04:20:00;16.10;99.90
14093;DHT22;7123;49.468;10.992;2023-09-30T04:22:27;16.10;99.90
14093;DHT22;7123;49.468;10.992;2023-09-30T04:24:56;16.10;99.90
14093;DHT22;7123;49.468;10.992;2023-09-30T04:27:23;16.10;99.90
14093;DHT22;7123;49.468;10.992;2023-09-30T04:29:50;16.10;99.90
14093;DHT22;7123;49.468;10.992;2023-09-30T04:32:17;16.00;99.90
14093;DHT22;7123;49.468;10.992;2023-09-30T04:34:44;15.90;99.90
14093;DHT22;7123;49.468;10.992;2023-09-30T04:37:13;16.00;99.90
14093;DHT22;7123;49.468;10.992;2023-09-30T04:39:40;15.80;99.90
14093;DHT22;7123;49.468;10.992;2023-09-30T04:42:07;15.90;99.90
14093;DHT22;7123;49.468;10.992;2023-09-30T04:44:38;15.80;99.90
14093;DHT22;7123;49.468;10.992;2023-09-30T04:47:08;15.80;99.90
14093;DHT22;7123;49.468;10.992;2023-09-30T04:49:34;15.80;99.90
14093;DHT22;7123;49.468;10.992;2023-09-30T04:52:02;15.80;99.90
14093;DHT22;7123;49.468;10.992;2023-09-30T04:54:28;15.70;99.90
14093;DHT22;7123;49.468;10.992;2023-09-30T04:56:56;15.80;99.90
14093;DHT22;7123;49.468;10.992;2023-09-30T04:59:23;15.70;99.90
14093;DHT22;7123;49.468;10.992;2023-09-30T05:01:51;15.80;99.90
14093;DHT22;7123;49.468;10.992;2023-09-30T05:04:18;15.70;99.90
14093;DHT22;7123;49.468;10.992;2023-09-30T05:06:45;15.70;99.90
14093;DHT22;7123;49.468;10.992;2023-09-30T05:09:12;15.70;99.90
14093;DHT22;7123;49.468;10.992;2023-09-30T05:11:39;15.70;99.90
14093;DHT22;7123;49.468;10.992;2023-09-30T05:14:05;15.70;99.90
14093;DHT22;7123;49.468;10.992;2023-09-30T05:16:32;15.70;99.90
14093;DHT22;7123;49.468;10.992;2023-09-30T05:18:59;15.70;99.90
14093;DHT22;7123;49.468;10.992;2023-09-30T05:21:26;15.80;99.90
14093;DHT22;7123;49.468;10.992;2023-09-30T05:23:53;15.70;99.90
14093;DHT22;7123;49.468;10.992;2023-09-30T05:26:20;15.80;99.90
14093;DHT22;7123;49.468;10.992;2023-09-30T05:28:46;15.90;99.90
14093;DHT22;7123;49.468;10.992;2023-09-30T05:31:13;16.00;99.90
14093;DHT22;7123;49.468;10.992;2023-09-30T05:33:40;16.00;99.90
14093;DHT22;7123;49.468;10.992;2023-09-30T05:36:07;16.00;99.90
14093;DHT22;7123;49.468;10.992;2023-09-30T05:38:34;16.00;99.90
14093;DHT22;7123;49.468;10.992;2023-09-30T05:41:00;16.00;99.90
14093;DHT22;7123;49.468;10.992;2023-09-30T05:43:27;16.00;99.90
14093;DHT22;7123;49.468;10.992;2023-09-30T05:45:54;16.10;99.90
14093;DHT22;7123;49.468;10.992;2023-09-30T05:48:25;16.20;99.90
14093;DHT22;7123;49.468;10.992;2023-09-30T05:50:52;16.10;99.90
14093;DHT22;7123;49.468;10.992;2023-09-30T05:53:18;16.10;99.90
14093;DHT22;7123;49.468;10.992;2023-09-30T05:55:47;16.10;99.90
14093;DHT22;7123;49.468;10.992;2023-09-30T05:58:42;16.10;99.90
14093;DHT22;7123;49.468;10.992;2023-09-30T06:01:09;16.10;99.90
14093;DHT22;7123;49.468;10.992;2023-09-30T06:03:38;16.10;99.90
14093;DHT22;7123;49.468;10.992;2023-09-30T06:06:11;16.10;99.90
14093;DHT22;7123;49.468;10.992;2023-09-30T06:08:39;16.30;99.90
14093;DHT22;7123;49.468;10.992;2023-09-30T06:11:06;16.20;99.90
14093;DHT22;7123;49.468;10.992;2023-09-30T06:13:33;16.30;99.90
14093;DHT22;7123;49.468;10.992;2023-09-30T06:15:59;16.30;99.90
14093;DHT22;7123;49.468;10.992;2023-09-30T06:18:26;16.30;99.90
14093;DHT22;7123;49.468;10.992;2023-09-30T06:20:53;16.40;99.90
14093;DHT22;7123;49.468;10.992;2023-09-30T06:23:20;16.30;99.90
14093;DHT22;7123;49.468;10.992;2023-09-30T06:25:46;16.30;99.90
14093;DHT22;7123;49.468;10.992;2023-09-30T06:28:13;16.40;99.90
14093;DHT22;7123;49.468;10.992;2023-09-30T06:30:40;16.50;99.90
14093;DHT22;7123;49.468;10.992;2023-09-30T06:33:08;16.40;99.90
14093;DHT22;7123;49.468;10.992;2023-09-30T06:35:38;16.30;99.90
14093;DHT22;7123;49.468;10.992;2023-09-30T06:38:19;16.30;99.90
14093;DHT22;7123;49.468;10.992;2023-09-30T06:40:47;16.20;99.90
14093;DHT22;7123;49.468;10.992;2023-09-30T06:43:14;16.10;99.90
14093;DHT22;7123;49.468;10.992;2023-09-30T06:45:45;16.00;99.90
14093;DHT22;7123;49.468;10.992;2023-09-30T06:48:13;16.00;99.90
14093;DHT22;7123;49.468;10.992;2023-09-30T06:50:46;16.10;99.90
14093;DHT22;7123;49.468;10.992;2023-09-30T06:53:18;16.10;99.90
14093;DHT22;7123;49.468;10.992;2023-09-30T06:55:48;16.10;99.90
14093;DHT22;7123;49.468;10.992;2023-09-30T06:58:14;16.10;99.90
14093;DHT22;7123;49.468;10.992;2023-09-30T07:00:51;16.10;99.90
14093;DHT22;7123;49.468;10.992;2023-09-30T07:03:20;16.20;99.90
14093;DHT22;7123;49.468;10.992;2023-09-30T07:05:52;16.30;99.90
14093;DHT22;7123;49.468;10.992;2023-09-30T07:08:20;16.40;99.90
14093;DHT22;7123;49.468;10.992;2023-09-30T07:10:47;16.50;99.90
14093;DHT22;7123;49.468;10.992;2023-09-30T07:13:16;16.40;99.90
14093;DHT22;7123;49.468;10.992;2023-09-30T07:15:44;16.40;99.90
14093;DHT22;7123;49.468;10.992;2023-09-30T07:18:11;16.20;99.90
14093;DHT22;7123;49.468;10.992;2023-09-30T07:20:38;16.20;99.90
14093;DHT22;7123;49.468;10.992;2023-09-30T07:23:05;16.20;99.90
14093;DHT22;7123;49.468;10.992;2023-09-30T07:25:45;16.20;99.90
14093;DHT22;7123;49.468;10.992;2023-09-30T07:28:11;16.20;99.90
14093;DHT22;7123;49.468;10.992;2023-09-30T07:30:39;16.20;99.90
14093;DHT22;7123;49.468;10.992;2023-09-30T07:33:07;16.30;99.90
14093;DHT22;7123;49.468;10.992;2023-09-30T07:35:34;16.50;99.90
14093;DHT22;7123;49.468;10.992;2023-09-30T07:38:01;16.60;99.90
14093;DHT22;7123;49.468;10.992;2023-09-30T07:40:30;16.70;99.90
14093;DHT22;7123;49.468;10.992;2023-09-30T07:42:56;16.70;99.90
14093;DHT22;7123;49.468;10.992;2023-09-30T07:45:23;16.50;99.90
14093;DHT22;7123;49.468;10.992;2023-09-30T07:47:50;16.60;99.90
14093;DHT22;7123;49.468;10.992;2023-09-30T07:50:17;16.60;99.90
14093;DHT22;7123;49.468;10.992;2023-09-30T07:52:45;16.50;99.90
14093;DHT22;7123;49.468;10.992;2023-09-30T07:55:12;16.60;99.90
14093;DHT22;7123;49.468;10.992;2023-09-30T07:57:41;16.60;99.90
14093;DHT22;7123;49.468;10.992;2023-09-30T08:00:13;16.70;99.90
14093;DHT22;7123;49.468;10.992;2023-09-30T08:02:44;16.70;99.90
14093;DHT22;7123;49.468;10.992;2023-09-30T08:05:11;16.60;99.90
14093;DHT22;7123;49.468;10.992;2023-09-30T08:07:38;16.60;99.90
14093;DHT22;7123;49.468;10.992;2023-09-30T08:10:06;16.60;99.90
14093;DHT22;7123;49.468;10.992;2023-09-30T08:12:40;16.60;99.90
14093;DHT22;7123;49.468;10.992;2023-09-30T08:15:08;16.60;99.90
14093;DHT22;7123;49.468;10.992;2023-09-30T08:17:38;16.80;99.90
14093;DHT22;7123;49.468;10.992;2023-09-30T08:20:06;16.80;99.90
14093;DHT22;7123;49.468;10.992;2023-09-30T08:22:32;16.80;99.90
14093;DHT22;7123;49.468;10.992;2023-09-30T08:24:59;16.80;99.90
14093;DHT22;7123;49.468;10.992;2023-09-30T08:27:26;16.80;99.90
14093;DHT22;7123;49.468;10.992;2023-09-30T08:29:53;16.70;99.90
14093;DHT22;7123;49.468;10.992;2023-09-30T08:32:20;16.80;99.90
14093;DHT22;7123;49.468;10.992;2023-09-30T08:34:47;16.90;99.90
14093;DHT22;7123;49.468;10.992;2023-09-30T08:37:14;16.90;99.90
14093;DHT22;7123;49.468;10.992;2023-09-30T08:39:41;16.90;99.90
14093;DHT22;7123;49.468;10.992;2023-09-30T08:42:10;16.80;99.90
14093;DHT22;7123;49.468;10.992;2023-09-30T08:44:40;16.80;99.90
14093;DHT22;7123;49.468;10.992;2023-09-30T08:47:07;16.80;99.90
14093;DHT22;7123;49.468;10.992;2023-09-30T08:49:38;16.80;99.90
14093;DHT22;7123;49.468;10.992;2023-09-30T08:52:06;16.80;99.90
14093;DHT22;7123;49.468;10.992;2023-09-30T08:54:35;17.00;99.90
14093;DHT22;7123;49.468;10.992;2023-09-30T08:57:03;17.10;99.90
14093;DHT22;7123;49.468;10.992;2023-09-30T08:59:31;17.30;99.90
14093;DHT22;7123;49.468;10.992;2023-09-30T09:02:01;17.40;99.90
14093;DHT22;7123;49.468;10.992;2023-09-30T09:04:28;17.50;99.90
14093;DHT22;7123;49.468;10.992;2023-09-30T09:06:55;17.50;99.90
14093;DHT22;7123;49.468;10.992;2023-09-30T09:09:22;17.60;99.90
14093;DHT22;7123;49.468;10.992;2023-09-30T09:11:50;17.60;99.90
14093;DHT22;7123;49.468;10.992;2023-09-30T09:14:19;17.70;99.90
14093;DHT22;7123;49.468;10.992;2023-09-30T09:16:54;17.80;99.90
14093;DHT22;7123;49.468;10.992;2023-09-30T09:19:22;18.00;99.90
14093;DHT22;7123;49.468;10.992;2023-09-30T09:21:58;18.00;99.90
14093;DHT22;7123;49.468;10.992;2023-09-30T09:24:36;18.10;99.90
14093;DHT22;7123;49.468;10.992;2023-09-30T09:27:07;18.00;99.90
14093;DHT22;7123;49.468;10.992;2023-09-30T09:29:35;18.00;99.90
14093;DHT22;7123;49.468;10.992;2023-09-30T09:32:16;17.80;99.90
14093;DHT22;7123;49.468;10.992;2023-09-30T09:34:44;17.80;99.90
14093;DHT22;7123;49.468;10.992;2023-09-30T09:37:16;17.90;99.90
14093;DHT22;7123;49.468;10.992;2023-09-30T09:39:54;18.10;99.90
14093;DHT22;7123;49.468;10.992;2023-09-30T09:42:32;18.30;99.90
14093;DHT22;7123;49.468;10.992;2023-09-30T09:45:04;18.50;99.90
14093;DHT22;7123;49.468;10.992;2023-09-30T09:47:35;18.50;99.90
14093;DHT22;7123;49.468;10.992;2023-09-30T09:50:03;18.60;99.90
14093;DHT22;7123;49.468;10.992;2023-09-30T09:52:34;18.60;99.90
14093;DHT22;7123;49.468;10.992;2023-09-30T09:55:02;18.60;99.90
14093;DHT22;7123;49.468;10.992;2023-09-30T09:57:30;18.40;99.90
14093;DHT22;7123;49.468;10.992;2023-09-30T09:59:58;18.30;99.90
14093;DHT22;7123;49.468;10.992;2023-09-30T10:02:26;18.20;99.90
14093;DHT22;7123;49.468;10.992;2023-09-30T10:04:55;18.20;99.90
14093;DHT22;7123;49.468;10.992;2023-09-30T10:07:28;18.20;99.90
14093;DHT22;7123;49.468;10.992;2023-09-30T10:09:56;18.30;99.90
14093;DHT22;7123;49.468;10.992;2023-09-30T10:12:26;18.20;99.90
14093;DHT22;7123;49.468;10.992;2023-09-30T10:14:53;18.20;99.90
14093;DHT22;7123;49.468;10.992;2023-09-30T10:17:20;18.20;99.90
14093;DHT22;7123;49.468;10.992;2023-09-30T10:20:06;18.20;99.90
14093;DHT22;7123;49.468;10.992;2023-09-30T10:22:33;18.30;99.90
14093;DHT22;7123;49.468;10.992;2023-09-30T10:25:33;18.20;99.90
14093;DHT22;7123;49.468;10.992;2023-09-30T10:28:40;18.20;99.90
14093;DHT22;7123;49.468;10.992;2023-09-30T10:31:16;18.10;99.90
14093;DHT22;7123;49.468;10.992;2023-09-30T10:36:29;18.10;99.90
14093;DHT22;7123;49.468;10.992;2023-09-30T10:38:56;18.10;99.90
14093;DHT22;7123;49.468;10.992;2023-09-30T10:46:49;18.10;99.90
14093;DHT22;7123;49.468;10.992;2023-09-30T10:49:30;18.20;99.90
14093;DHT22;7123;49.468;10.992;2023-09-30T10:52:00;18.30;99.90
14093;DHT22;7123;49.468;10.992;2023-09-30T10:54:31;18.30;99.90
14093;DHT22;7123;49.468;10.992;2023-09-30T10:57:00;18.30;99.90
14093;DHT22;7123;49.468;10.992;2023-09-30T10:59:28;18.30;99.90
14093;DHT22;7123;49.468;10.992;2023-09-30T11:01:58;18.30;99.90
14093;DHT22;7123;49.468;10.992;2023-09-30T11:04:25;18.20;99.90
14093;DHT22;7123;49.468;10.992;2023-09-30T11:06:56;18.20;99.90
14093;DHT22;7123;49.468;10.992;2023-09-30T11:09:23;18.30;99.90
14093;DHT22;7123;49.468;10.992;2023-09-30T11:11:51;18.40;99.90
14093;DHT22;7123;49.468;10.992;2023-09-30T11:14:21;18.50;99.90
14093;DHT22;7123;49.468;10.992;2023-09-30T11:16:50;18.70;99.90
14093;DHT22;7123;49.468;10.992;2023-09-30T11:19:18;18.70;99.90
14093;DHT22;7123;49.468;10.992;2023-09-30T11:21:54;18.80;99.90
14093;DHT22;7123;49.468;10.992;2023-09-30T11:24:27;18.70;99.90
14093;DHT22;7123;49.468;10.992;2023-09-30T11:26:55;18.60;99.90
14093;DHT22;7123;49.468;10.992;2023-09-30T11:29:22;18.60;99.90
14093;DHT22;7123;49.468;10.992;2023-09-30T11:31:49;18.90;99.90
14093;DHT22;7123;49.468;10.992;2023-09-30T11:34:18;18.70;99.90
14093;DHT22;7123;49.468;10.992;2023-09-30T11:36:50;18.60;99.90
14093;DHT22;7123;49.468;10.992;2023-09-30T11:39:28;18.60;99.90
14093;DHT22;7123;49.468;10.992;2023-09-30T11:41:55;18.60;99.90
14093;DHT22;7123;49.468;10.992;2023-09-30T11:44:25;18.70;99.90
14093;DHT22;7123;49.468;10.992;2023-09-30T11:46:56;18.60;99.90
14093;DHT22;7123;49.468;10.992;2023-09-30T11:51:59;18.70;99.90
14093;DHT22;7123;49.468;10.992;2023-09-30T11:54:32;18.70;99.90
14093;DHT22;7123;49.468;10.992;2023-09-30T11:57:02;18.70;99.90
14093;DHT22;7123;49.468;10.992;2023-09-30T11:59:30;18.80;99.90
14093;DHT22;7123;49.468;10.992;2023-09-30T12:01:58;19.00;99.90
14093;DHT22;7123;49.468;10.992;2023-09-30T12:04:41;18.90;99.90
14093;DHT22;7123;49.468;10.992;2023-09-30T12:07:08;18.80;99.90
14093;DHT22;7123;49.468;10.992;2023-09-30T12:09:36;18.80;99.90
14093;DHT22;7123;49.468;10.992;2023-09-30T12:12:08;18.90;99.90
14093;DHT22;7123;49.468;10.992;2023-09-30T12:14:36;19.00;99.90
14093;DHT22;7123;49.468;10.992;2023-09-30T12:17:03;19.00;99.90
14093;DHT22;7123;49.468;10.992;2023-09-30T12:19:30;19.00;99.90
14093;DHT22;7123;49.468;10.992;2023-09-30T12:22:00;19.00;99.90
14093;DHT22;7123;49.468;10.992;2023-09-30T12:24:27;19.00;99.90
14093;DHT22;7123;49.468;10.992;2023-09-30T12:26:54;19.10;99.90
14093;DHT22;7123;49.468;10.992;2023-09-30T12:29:22;19.20;99.90
14093;DHT22;7123;49.468;10.992;2023-09-30T12:31:53;19.20;99.90
14093;DHT22;7123;49.468;10.992;2023-09-30T12:34:22;19.20;99.90
14093;DHT22;7123;49.468;10.992;2023-09-30T12:36:54;19.20;99.90
14093;DHT22;7123;49.468;10.992;2023-09-30T12:39:24;19.20;99.90
14093;DHT22;7123;49.468;10.992;2023-09-30T12:41:55;19.20;99.90
14093;DHT22;7123;49.468;10.992;2023-09-30T12:44:22;19.30;99.90
14093;DHT22;7123;49.468;10.992;2023-09-30T12:46:49;19.30;99.90
14093;DHT22;7123;49.468;10.992;2023-09-30T12:49:17;19.30;99.90
14093;DHT22;7123;49.468;10.992;2023-09-30T12:51:44;19.30;99.90
14093;DHT22;7123;49.468;10.992;2023-09-30T12:54:12;19.40;99.90
14093;DHT22;7123;49.468;10.992;2023-09-30T12:56:41;19.50;99.90
14093;DHT22;7123;49.468;10.992;2023-09-30T12:59:08;19.40;99.90
14093;DHT22;7123;49.468;10.992;2023-09-30T13:01:36;19.40;99.90
14093;DHT22;7123;49.468;10.992;2023-09-30T13:04:03;19.40;99.90
14093;DHT22;7123;49.468;10.992;2023-09-30T13:06:35;19.40;99.90
14093;DHT22;7123;49.468;10.992;2023-09-30T13:09:02;19.40;99.90
14093;DHT22;7123;49.468;10.992;2023-09-30T13:11:31;19.60;99.90
14093;DHT22;7123;49.468;10.992;2023-09-30T13:14:02;19.80;99.90
14093;DHT22;7123;49.468;10.992;2023-09-30T13:16:29;20.00;99.90
14093;DHT22;7123;49.468;10.992;2023-09-30T13:18:57;20.30;99.90
14093;DHT22;7123;49.468;10.992;2023-09-30T13:21:24;20.40;99.90
14093;DHT22;7123;49.468;10.992;2023-09-30T13:23:51;20.40;99.90
14093;DHT22;7123;49.468;10.992;2023-09-30T13:26:19;20.60;99.90
14093;DHT22;7123;49.468;10.992;2023-09-30T13:28:45;20.50;99.90
14093;DHT22;7123;49.468;10.992;2023-09-30T13:31:12;20.50;99.90
14093;DHT22;7123;49.468;10.992;2023-09-30T13:33:40;20.70;99.90
14093;DHT22;7123;49.468;10.992;2023-09-30T13:36:07;20.90;99.90
14093;DHT22;7123;49.468;10.992;2023-09-30T13:38:34;21.00;99.90
14093;DHT22;7123;49.468;10.992;2023-09-30T13:41:01;21.20;99.90
14093;DHT22;7123;49.468;10.992;2023-09-30T13:43:28;21.30;99.90
14093;DHT22;7123;49.468;10.992;2023-09-30T13:45:55;21.40;99.90
14093;DHT22;7123;49.468;10.992;2023-09-30T13:48:22;21.40;99.90
14093;DHT22;7123;49.468;10.992;2023-09-30T13:50:50;21.50;99.90
14093;DHT22;7123;49.468;10.992;2023-09-30T13:53:16;21.40;99.90
14093;DHT22;7123;49.468;10.992;2023-09-30T13:55:44;21.40;99.90
14093;DHT22;7123;49.468;10.992;2023-09-30T13:58:12;21.20;99.90
14093;DHT22;7123;49.468;10.992;2023-09-30T14:00:38;21.30;99.90
14093;DHT22;7123;49.468;10.992;2023-09-30T14:03:06;21.30;99.90
14093;DHT22;7123;49.468;10.992;2023-09-30T14:05:33;21.40;99.90
14093;DHT22;7123;49.468;10.992;2023-09-30T14:08:00;21.50;99.90
14093;DHT22;7123;49.468;10.992;2023-09-30T14:10:28;21.50;99.90
14093;DHT22;7123;49.468;10.992;2023-09-30T14:12:55;21.40;99.90
14093;DHT22;7123;49.468;10.992;2023-09-30T14:15:22;21.20;99.90
14093;DHT22;7123;49.468;10.992;2023-09-30T14:17:49;21.30;99.90
14093;DHT22;7123;49.468;10.992;2023-09-30T14:20:16;21.30;99.90
14093;DHT22;7123;49.468;10.992;2023-09-30T14:22:42;21.30;99.90
14093;DHT22;7123;49.468;10.992;2023-09-30T14:25:09;21.30;99.90
14093;DHT22;7123;49.468;10.992;2023-09-30T14:27:36;21.20;99.90
14093;DHT22;7123;49.468;10.992;2023-09-30T14:30:03;21.30;99.90
14093;DHT22;7123;49.468;10.992;2023-09-30T14:32:34;21.30;99.90
14093;DHT22;7123;49.468;10.992;2023-09-30T14:35:01;21.40;99.90
14093;DHT22;7123;49.468;10.992;2023-09-30T14:37:28;21.50;99.90
14093;DHT22;7123;49.468;10.992;2023-09-30T14:39:56;21.40;99.90
14093;DHT22;7123;49.468;10.992;2023-09-30T14:42:23;21.50;99.90
14093;DHT22;7123;49.468;10.992;2023-09-30T14:44:50;21.50;99.90
14093;DHT22;7123;49.468;10.992;2023-09-30T14:47:16;21.50;99.90
14093;DHT22;7123;49.468;10.992;2023-09-30T14:49:43;21.50;99.90
14093;DHT22;7123;49.468;10.992;2023-09-30T14:52:10;21.50;99.90
14093;DHT22;7123;49.468;10.992;2023-09-30T14:54:37;21.50;99.90
14093;DHT22;7123;49.468;10.992;2023-09-30T14:57:04;21.60;99.90
14093;DHT22;7123;49.468;10.992;2023-09-30T14:59:33;21.60;99.90
14093;DHT22;7123;49.468;10.992;2023-09-30T15:02:01;21.80;99.90
14093;DHT22;7123;49.468;10.992;2023-09-30T15:04:28;21.80;99.90
14093;DHT22;7123;49.468;10.992;2023-09-30T15:06:55;21.70;99.90
14093;DHT22;7123;49.468;10.992;2023-09-30T15:09:22;21.60;99.90
14093;DHT22;7123;49.468;10.992;2023-09-30T15:11:49;21.60;99.90
14093;DHT22;7123;49.468;10.992;2023-09-30T15:14:16;21.60;99.90
14093;DHT22;7123;49.468;10.992;2023-09-30T15:16:43;21.60;99.90
14093;DHT22;7123;49.468;10.992;2023-09-30T15:19:10;21.60;99.90
14093;DHT22;7123;49.468;10.992;2023-09-30T15:21:37;21.70;99.90
14093;DHT22;7123;49.468;10.992;2023-09-30T15:24:04;21.70;99.90
14093;DHT22;7123;49.468;10.992;2023-09-30T15:26:31;21.60;99.90
14093;DHT22;7123;49.468;10.992;2023-09-30T15:28:58;21.50;99.90
14093;DHT22;7123;49.468;10.992;2023-09-30T15:31:28;21.40;99.90
14093;DHT22;7123;49.468;10.992;2023-09-30T15:33:57;21.40;99.90
14093;DHT22;7123;49.468;10.992;2023-09-30T15:36:24;21.40;99.90
14093;DHT22;7123;49.468;10.992;2023-09-30T15:38:52;21.30;99.90
14093;DHT22;7123;49.468;10.992;2023-09-30T15:41:23;21.30;99.90
14093;DHT22;7123;49.468;10.992;2023-09-30T15:43:50;21.30;99.90
14093;DHT22;7123;49.468;10.992;2023-09-30T15:46:17;21.20;99.90
14093;DHT22;7123;49.468;10.992;2023-09-30T15:48:44;21.10;99.90